Time;durP1;ratioP1;P1;durP2;ratioP2;P2;SDS_P1;SDS_P2;PMS_P1;PMS_P2;Temp;Humidity;BMP_temperature;BMP_pressure;BME280_temperature;BME280_humidity;BME280_pressure;Samples;Min_cycle;Max_cycle;Signal;HPM_P1;HPM_P2
2022/04/19 04:22:31;;;;;;;16.48;8.65;;;;;;;2.89;96.16;99934.50;5162399;27;20348;-75
2022/04/19 04:24:57;;;;;;;17.40;7.32;;;;;;;2.81;96.24;99950.94;5111337;28;20499;-76
2022/04/19 04:27:23;;;;;;;13.38;7.38;;;;;;;2.81;96.20;99956.22;5128155;27;20047;-76
2022/04/19 04:29:50;;;;;;;10.93;6.50;;;;;;;2.75;96.30;99953.28;5128142;27;20089;-76
2022/04/19 04:32:16;;;;;;;11.55;7.03;;;;;;;2.72;96.25;99949.09;5128252;28;20100;-77
2022/04/19 04:34:42;;;;;;;13.50;7.47;;;;;;;2.68;96.95;99951.16;5128236;28;20452;-77
2022/04/19 04:37:09;;;;;;;11.43;6.97;;;;;;;2.76;96.17;99960.19;5128529;27;20054;-77
2022/04/19 04:39:43;;;;;;;14.98;7.82;;;;;;;2.76;96.62;99960.19;5128364;27;20039;-77
2022/04/19 04:42:26;;;;;;;9.90;6.30;;;;;;;2.81;95.76;99952.75;5113764;28;20112;-77
2022/04/19 04:44:58;;;;;;;8.27;5.65;;;;;;;2.85;95.32;99957.59;5128328;28;20155;-77
2022/04/19 04:50:09;;;;;;;10.02;5.80;;;;;;;2.98;93.49;99965.28;5128786;27;20035;-77
2022/04/19 04:52:36;;;;;;;13.43;6.85;;;;;;;2.96;94.05;99954.91;5128479;27;20035;-77
2022/04/19 04:55:05;;;;;;;9.48;5.55;;;;;;;2.75;95.01;99954.09;5128001;28;20040;-77
2022/04/19 04:57:33;;;;;;;10.07;5.88;;;;;;;2.80;94.47;99957.16;5128143;28;20126;-77
2022/04/19 04:59:59;;;;;;;8.00;5.88;;;;;;;2.85;94.12;99954.13;5128100;28;20129;-76
2022/04/19 05:02:26;;;;;;;9.48;5.50;;;;;;;2.80;94.62;99953.69;5127200;28;20123;-76
2022/04/19 05:04:52;;;;;;;8.98;6.00;;;;;;;2.78;95.78;99958.25;5127462;28;20074;-76
2022/04/19 05:07:18;;;;;;;8.15;5.50;;;;;;;2.70;96.40;99959.75;5127439;28;20027;-76
2022/04/19 05:09:48;;;;;;;13.40;6.20;;;;;;;2.69;96.87;99958.06;5127634;28;20031;-76
2022/04/19 05:12:14;;;;;;;9.68;5.50;;;;;;;2.73;96.52;99962.09;5126966;28;20104;-76
2022/04/19 05:14:40;;;;;;;11.68;5.72;;;;;;;2.77;96.94;99961.84;5127402;28;20407;-76
2022/04/19 05:17:06;;;;;;;8.45;5.35;;;;;;;2.83;96.80;99972.69;5127288;28;20067;-77
2022/04/19 05:19:36;;;;;;;9.93;5.60;;;;;;;2.84;96.68;99963.81;5110970;28;20027;-77
2022/04/19 05:22:02;;;;;;;8.07;5.55;;;;;;;2.87;96.54;99968.84;5126762;28;20032;-77
2022/04/19 05:24:29;;;;;;;11.68;6.15;;;;;;;2.84;96.90;99965.63;5127211;28;20039;-77
2022/04/19 05:26:55;;;;;;;11.55;7.10;;;;;;;2.83;95.98;99967.44;5127069;27;20513;-77
2022/04/19 05:29:21;;;;;;;12.68;6.25;;;;;;;2.91;95.97;99967.59;5127091;28;20385;-77
2022/04/19 05:31:46;;;;;;;10.35;5.88;;;;;;;3.05;93.98;99966.41;5125495;28;20035;-77
2022/04/19 05:34:13;;;;;;;10.63;6.25;;;;;;;3.12;93.04;99967.56;5113109;28;20085;-77
2022/04/19 05:36:40;;;;;;;8.00;5.17;;;;;;;3.22;93.52;99967.59;5113432;28;20148;-77
2022/04/19 05:39:06;;;;;;;14.25;6.28;;;;;;;3.31;94.23;99968.59;5114236;28;20046;-77
2022/04/19 05:41:35;;;;;;;7.47;5.78;;;;;;;3.44;92.32;99977.09;5114274;28;20066;-77
2022/04/19 05:44:00;;;;;;;;;;;;;;;3.60;94.41;99968.69;5097033;28;20059;-76
2022/04/19 05:46:27;;;;;;;11.60;6.60;;;;;;;3.70;95.73;99956.38;5112841;28;19922;-76
2022/04/19 05:48:52;;;;;;;11.10;6.45;;;;;;;3.88;95.43;99974.97;5112866;28;20118;-76
2022/04/19 05:51:18;;;;;;;9.75;6.03;;;;;;;4.06;95.43;99975.97;5112750;28;20104;-75
2022/04/19 05:53:44;;;;;;;9.85;6.53;;;;;;;4.14;94.79;99973.47;5112632;28;20180;-75
2022/04/19 05:56:11;;;;;;;9.68;6.45;;;;;;;4.23;92.96;99971.78;5112772;28;20099;-75
2022/04/19 05:58:36;;;;;;;9.07;6.15;;;;;;;4.30;92.14;99979.03;5112637;28;20039;-75
2022/04/19 06:01:02;;;;;;;10.45;6.50;;;;;;;4.46;91.57;99978.47;5112605;28;20051;-75
2022/04/19 06:06:15;;;;;;;9.95;6.85;;;;;;;4.97;92.27;99984.34;5112530;28;20043;-75
2022/04/19 06:08:43;;;;;;;12.02;6.22;;;;;;;5.14;87.75;99992.31;5113244;28;20487;-76
2022/04/19 06:11:12;;;;;;;12.02;6.75;;;;;;;5.25;87.28;99987.84;5112825;28;20138;-76
2022/04/19 06:13:40;;;;;;;9.98;6.25;;;;;;;5.39;83.62;99992.66;5112361;28;20400;-76
2022/04/19 06:16:07;;;;;;;11.13;6.30;;;;;;;5.61;83.47;99987.00;5112682;28;20027;-72
2022/04/19 06:18:34;;;;;;;10.63;6.22;;;;;;;5.83;84.13;99991.03;5096022;28;20271;-72
2022/04/19 06:21:06;;;;;;;13.07;6.60;;;;;;;5.93;83.06;99989.19;5114020;28;20042;-72
2022/04/19 06:23:34;;;;;;;10.07;6.07;;;;;;;6.06;82.37;99988.78;5114368;28;20481;-72
2022/04/19 06:26:00;;;;;;;9.95;6.05;;;;;;;6.23;82.30;99993.25;5112785;28;20078;-73
2022/04/19 06:28:28;;;;;;;12.52;7.47;;;;;;;6.38;81.78;99993.56;5112447;28;20038;-72
2022/04/19 06:31:12;;;;;;;15.32;6.88;;;;;;;6.45;80.78;99989.31;5113980;28;20177;-73
2022/04/19 06:33:39;;;;;;;12.20;6.55;;;;;;;6.70;80.48;99994.81;5112049;28;20129;-72
2022/04/19 06:36:06;;;;;;;9.45;6.20;;;;;;;6.79;77.46;99992.06;5095458;28;20507;-73
2022/04/19 06:38:34;;;;;;;8.82;5.40;;;;;;;6.85;77.97;99990.63;5079199;28;20445;-71
2022/04/19 06:41:00;;;;;;;9.65;5.90;;;;;;;7.00;78.28;99985.59;5095475;28;20053;-70
2022/04/19 06:43:27;;;;;;;9.38;6.15;;;;;;;7.22;77.46;99976.25;5112918;28;20138;-69
2022/04/19 06:46:09;;;;;;;10.13;6.43;;;;;;;7.35;76.83;99988.06;5096907;28;20027;-70
2022/04/19 06:48:36;;;;;;;11.98;6.15;;;;;;;7.62;75.85;99981.72;5109074;28;20126;-70
2022/04/19 06:51:02;;;;;;;10.82;5.97;;;;;;;7.75;74.94;99983.91;5110295;28;20527;-69
2022/04/19 06:53:30;;;;;;;10.57;6.00;;;;;;;7.89;72.57;99980.66;5112038;28;20031;-70
2022/04/19 06:56:07;;;;;;;9.65;5.40;;;;;;;8.03;73.22;99986.31;5111860;28;20043;-69
2022/04/19 06:58:33;;;;;;;14.18;7.28;;;;;;;8.22;71.16;99987.84;5111584;28;20122;-70
2022/04/19 07:00:58;;;;;;;10.48;5.72;;;;;;;8.36;70.20;99985.41;5111629;28;20469;-70
2022/04/19 07:03:25;;;;;;;11.95;5.80;;;;;;;8.59;67.60;99982.06;5110756;28;20046;-70
2022/04/19 07:05:53;;;;;;;9.23;5.07;;;;;;;8.60;69.00;99989.84;5113463;28;20080;-70
2022/04/19 07:08:19;;;;;;;10.43;6.03;;;;;;;8.65;68.19;99987.53;5096275;28;20122;-71
2022/04/19 07:10:45;;;;;;;10.48;5.82;;;;;;;8.76;68.12;99991.69;5113532;28;20045;-71
2022/04/19 07:13:33;;;;;;;9.55;5.07;;;;;;;8.87;67.67;99994.00;5113159;28;20244;-70
2022/04/19 07:15:59;;;;;;;13.13;6.25;;;;;;;9.02;65.58;99990.66;5112115;28;20496;-70
2022/04/19 07:18:26;;;;;;;7.18;5.07;;;;;;;9.00;66.45;99985.53;5111278;28;20042;-70
2022/04/19 07:26:38;;;;;;;14.77;5.78;;;;;;;9.50;63.55;99995.00;5111138;28;20043;-70
2022/04/19 07:29:07;;;;;;;8.60;5.68;;;;;;;9.58;63.54;99989.63;5110814;28;20400;-70
2022/04/19 07:31:34;;;;;;;;;;;;;;;9.68;65.23;99987.59;5110744;28;20123;-70
2022/04/19 07:34:04;;;;;;;9.35;5.88;;;;;;;9.75;63.70;99993.06;5110499;28;19919;-69
2022/04/19 07:36:30;;;;;;;8.20;5.03;;;;;;;9.86;63.78;99986.53;5110835;28;20050;-70
2022/04/19 07:38:57;;;;;;;7.57;5.13;;;;;;;10.03;65.30;99983.56;5115134;28;20051;-70
2022/04/19 07:41:30;;;;;;;14.40;5.80;;;;;;;10.12;62.30;99975.56;5112709;28;20032;-69
2022/04/19 07:43:56;;;;;;;9.20;6.47;;;;;;;10.31;61.53;99964.47;5112189;28;20439;-70
2022/04/19 07:46:22;;;;;;;10.20;5.40;;;;;;;10.45;63.06;99979.66;5111234;28;20035;-71
2022/04/19 07:48:51;;;;;;;10.20;5.57;;;;;;;10.61;61.54;99965.38;5111609;28;20039;-69
2022/04/19 07:51:18;;;;;;;11.32;5.07;;;;;;;10.73;62.04;99963.09;5110834;28;20148;-70
2022/04/19 07:53:44;;;;;;;12.52;5.45;;;;;;;10.98;62.54;99961.84;5092737;28;20032;-70
2022/04/19 07:56:10;;;;;;;9.18;5.30;;;;;;;11.05;60.66;99961.94;5110292;28;20553;-70
2022/04/19 07:58:35;;;;;;;7.07;5.00;;;;;;;11.14;59.35;99961.66;5110703;28;20039;-69
2022/04/19 08:01:01;;;;;;;10.85;5.20;;;;;;;11.35;56.72;99962.78;5110795;28;20031;-69
2022/04/19 08:03:27;;;;;;;11.25;4.97;;;;;;;11.47;56.24;99960.44;5109835;28;20039;-69
2022/04/19 08:05:53;;;;;;;8.05;4.57;;;;;;;11.62;54.52;99959.44;5111175;28;20055;-70
2022/04/19 08:08:21;;;;;;;10.88;5.50;;;;;;;11.78;55.88;99957.56;5110647;28;20046;-69
2022/04/19 08:10:50;;;;;;;9.75;4.60;;;;;;;11.82;54.44;99956.22;5094125;28;20028;-70
2022/04/19 08:13:17;;;;;;;8.00;4.53;;;;;;;11.95;54.17;99951.00;5109839;28;20051;-70
2022/04/19 08:15:43;;;;;;;9.63;4.37;;;;;;;12.10;53.26;99946.44;5110469;28;20077;-70
2022/04/19 08:18:13;;;;;;;9.77;4.65;;;;;;;12.23;54.34;99949.22;5110980;28;20031;-69
2022/04/19 08:20:41;;;;;;;9.43;4.57;;;;;;;12.28;51.05;99946.00;5113471;28;20058;-70
2022/04/19 08:23:09;;;;;;;10.38;4.78;;;;;;;12.49;53.41;99939.81;5096674;28;20035;-73
2022/04/19 08:25:36;;;;;;;12.18;4.95;;;;;;;12.65;53.28;99944.03;5110356;28;20150;-71
2022/04/19 08:28:02;;;;;;;10.93;5.03;;;;;;;12.80;53.20;99944.78;5110953;28;20115;-70
2022/04/19 08:30:29;;;;;;;10.93;5.18;;;;;;;12.75;50.97;99944.53;5110810;28;20505;-70
2022/04/19 08:32:55;;;;;;;8.38;4.65;;;;;;;12.85;49.26;99938.84;5110639;28;20039;-70
2022/04/19 08:35:21;;;;;;;9.70;5.03;;;;;;;13.16;53.82;99931.22;5111546;28;20035;-69
2022/04/19 08:37:47;;;;;;;10.18;4.88;;;;;;;13.21;51.01;99934.16;5110162;28;20147;-70
2022/04/19 08:40:14;;;;;;;10.50;5.00;;;;;;;13.41;50.38;99928.91;5110477;28;20035;-71
2022/04/19 08:42:41;;;;;;;7.60;4.90;;;;;;;13.68;53.54;99934.34;5110093;28;20032;-70
2022/04/19 08:45:09;;;;;;;10.27;4.78;;;;;;;13.89;51.71;99925.34;5111957;28;20468;-70
2022/04/19 08:47:40;;;;;;;7.38;4.20;;;;;;;14.12;52.03;99923.13;5112064;28;20036;-74
2022/04/19 08:50:09;;;;;;;11.77;4.63;;;;;;;14.33;47.21;99928.31;5111911;28;20047;-71
2022/04/19 08:52:35;;;;;;;9.95;5.00;;;;;;;14.39;46.09;99932.03;5109941;28;20116;-69
2022/04/19 08:57:45;;;;;;;7.13;4.28;;;;;;;14.74;43.77;99927.31;5111359;28;20036;-68
2022/04/19 09:00:12;;;;;;;10.60;4.75;;;;;;;14.70;44.13;99919.88;5111538;28;20361;-69
2022/04/19 09:02:38;;;;;;;9.30;4.65;;;;;;;15.00;43.63;99914.91;5111362;28;20036;-68
2022/04/19 09:05:33;;;;;;;7.07;4.35;;;;;;;15.37;41.53;99919.50;5111408;28;20501;-68
2022/04/19 09:07:58;;;;;;;12.70;4.65;;;;;;;15.50;41.62;99920.50;5108146;28;20104;-68
2022/04/19 09:10:33;;;;;;;8.02;4.55;;;;;;;15.51;39.17;99919.47;5115257;27;20043;-68
2022/04/19 09:13:04;;;;;;;7.75;4.20;;;;;;;15.36;40.57;99917.88;5115041;28;20035;-68
2022/04/19 09:15:44;;;;;;;9.05;4.60;;;;;;;15.87;39.88;99914.34;5116269;28;20051;-69
2022/04/19 09:18:24;;;;;;;7.68;3.97;;;;;;;16.18;38.98;99910.03;5118058;27;20488;-69
2022/04/19 09:20:53;;;;;;;9.93;5.00;;;;;;;16.40;38.96;99905.91;5118412;28;20047;-69
2022/04/19 09:23:21;;;;;;;10.50;5.18;;;;;;;16.69;37.15;99900.91;5116968;28;20027;-69
2022/04/19 09:25:51;;;;;;;8.50;4.78;;;;;;;16.96;36.83;99913.09;5115702;28;20035;-69
2022/04/19 09:28:18;;;;;;;8.68;5.00;;;;;;;17.02;37.62;99900.63;5117380;28;20039;-69
2022/04/19 09:30:48;;;;;;;8.23;5.05;;;;;;;17.21;35.76;99902.25;5115951;28;20047;-69
2022/04/19 09:33:18;;;;;;;9.88;5.13;;;;;;;17.09;35.59;99902.19;5116910;28;20442;-69
2022/04/19 09:35:53;;;;;;;8.38;4.40;;;;;;;17.61;35.27;99908.00;5116977;28;20459;-69
2022/04/19 09:38:38;;;;;;;8.43;4.65;;;;;;;17.48;33.94;99900.09;5115752;28;20054;-69
2022/04/19 09:41:05;;;;;;;11.50;4.25;;;;;;;17.79;35.00;99893.66;5115752;28;20035;-68
2022/04/19 09:43:32;;;;;;;7.72;4.72;;;;;;;17.86;33.11;99890.88;5114695;28;20044;-68
2022/04/19 09:45:59;;;;;;;11.90;4.70;;;;;;;18.21;35.07;99877.50;5115367;28;20472;-68
2022/04/19 09:48:32;;;;;;;7.03;3.85;;;;;;;18.56;32.63;99879.41;5114757;28;20191;-68
2022/04/19 09:51:03;;;;;;;8.93;4.95;;;;;;;18.85;33.13;99878.50;5114636;27;20046;-69
2022/04/19 09:53:32;;;;;;;9.15;4.65;;;;;;;18.42;33.10;99874.25;5114529;28;20476;-68
2022/04/19 09:55:59;;;;;;;8.32;4.78;;;;;;;18.98;32.71;99864.75;5130746;27;20498;-69
2022/04/19 09:58:26;;;;;;;8.73;3.88;;;;;;;19.53;31.04;99868.81;5135830;27;20031;-68
2022/04/19 10:00:52;;;;;;;8.37;4.67;;;;;;;19.90;28.95;99863.06;5136507;27;20035;-69
2022/04/19 10:08:52;;;;;;;7.05;4.13;;;;;;;21.25;28.24;99852.88;5136966;27;19915;-69
2022/04/19 10:11:18;;;;;;;6.88;4.25;;;;;;;21.62;29.26;99859.31;5135332;27;20391;-69
2022/04/19 10:13:45;;;;;;;8.05;4.28;;;;;;;21.87;28.10;99853.34;5132981;27;20642;-69
2022/04/19 10:16:12;;;;;;;6.72;4.03;;;;;;;22.36;26.06;99849.69;5134525;27;20176;-72
2022/04/19 10:18:39;;;;;;;7.38;4.28;;;;;;;22.61;26.85;99840.91;5134468;27;20022;-68
2022/04/19 10:21:10;;;;;;;8.93;4.60;;;;;;;22.70;25.92;99844.78;5134405;27;20031;-68
2022/04/19 10:23:41;;;;;;;7.30;4.22;;;;;;;23.11;24.91;99853.16;5134105;27;20035;-68
2022/04/19 10:26:22;;;;;;;8.77;4.53;;;;;;;23.30;24.74;99843.44;5134183;27;20039;-68
2022/04/19 10:28:53;;;;;;;9.57;4.90;;;;;;;23.02;23.32;99845.53;5134589;27;20410;-67
2022/04/19 10:31:35;;;;;;;11.27;4.85;;;;;;;22.99;23.68;99840.59;5138189;22;20047;-71
2022/04/19 10:34:05;;;;;;;8.73;5.07;;;;;;;23.47;22.84;99838.63;5073138;28;20122;-72
2022/04/19 10:36:37;;;;;;;7.13;4.47;;;;;;;23.33;24.22;99839.38;5073207;28;20045;-72
2022/04/19 10:39:15;;;;;;;7.13;4.03;;;;;;;23.67;23.92;99843.31;5073128;28;20119;-72
2022/04/19 10:41:48;;;;;;;9.95;4.65;;;;;;;23.41;23.47;99834.25;5072720;28;20102;-72
2022/04/19 10:44:43;;;;;;;6.75;4.28;;;;;;;23.19;25.92;99833.63;5073092;28;20032;-72
2022/04/19 10:47:17;;;;;;;7.10;3.95;;;;;;;23.61;22.88;99829.94;5069679;28;20500;-71
2022/04/19 10:49:48;;;;;;;5.85;3.50;;;;;;;24.23;23.26;99826.19;5072827;28;20685;-71
2022/04/19 10:52:36;;;;;;;9.00;3.90;;;;;;;24.23;23.32;99824.28;5072540;28;20078;-72
2022/04/19 10:55:04;;;;;;;8.75;3.92;;;;;;;24.59;22.58;99827.81;5072646;28;20028;-71
2022/04/19 11:00:34;;;;;;;8.48;4.13;;;;;;;24.99;22.69;99819.81;5072816;28;20481;-72
2022/04/19 11:03:21;;;;;;;5.45;3.55;;;;;;;25.37;22.44;99812.84;5070957;28;20036;-72
2022/04/19 11:05:55;;;;;;;6.80;3.53;;;;;;;25.17;21.88;99820.03;5072043;28;20048;-73
2022/04/19 11:08:27;;;;;;;4.70;3.15;;;;;;;25.90;21.26;99819.31;5072561;28;20063;-73
2022/04/19 11:10:55;;;;;;;7.03;3.67;;;;;;;23.82;22.26;99804.44;5072306;28;20025;-72
2022/04/19 11:13:22;;;;;;;6.68;3.88;;;;;;;24.87;20.70;99814.66;5072035;28;20042;-71
2022/04/19 11:16:06;;;;;;;6.47;3.55;;;;;;;25.39;19.96;99805.19;5072365;28;20041;-71
2022/04/19 11:18:58;;;;;;;4.95;3.30;;;;;;;25.51;20.56;99802.13;5072270;28;20032;-74
2022/04/19 11:21:51;;;;;;;8.32;4.25;;;;;;;25.15;21.86;99797.66;5064909;28;20088;-71
2022/04/19 11:24:56;;;;;;;9.65;5.40;;;;;;;25.41;20.94;99797.53;5072018;28;20029;-72
2022/04/19 11:27:21;;;;;;;5.30;3.15;;;;;;;25.94;19.26;99784.91;5061390;28;20103;-73
2022/04/19 11:29:49;;;;;;;5.60;3.38;;;;;;;25.64;19.11;99799.56;5071804;28;20528;-72
2022/04/19 11:32:21;;;;;;;5.20;3.10;;;;;;;25.68;20.07;99791.63;5071534;28;20105;-72
2022/04/19 11:35:04;;;;;;;5.63;3.30;;;;;;;25.96;19.76;99795.53;5072777;28;20033;-71
2022/04/19 11:37:31;;;;;;;5.63;3.67;;;;;;;25.79;20.66;99774.13;5071981;28;20047;-72
2022/04/19 11:48:26;;;;;;;10.57;4.30;;;;;;;26.35;19.47;99781.00;5071756;28;20127;-72
2022/04/19 11:50:53;;;;;;;4.95;3.38;;;;;;;26.77;19.27;99770.16;5071624;28;20413;-72
2022/04/19 11:53:24;;;;;;;6.80;3.97;;;;;;;25.67;20.56;99770.91;5071472;28;20036;-72
2022/04/19 11:55:52;;;;;;;5.15;3.38;;;;;;;24.19;23.75;99770.69;5070116;28;20087;-74
2022/04/19 11:58:20;;;;;;;;;;;;;;;25.96;21.42;99771.81;5072145;28;20032;-73
2022/04/19 12:00:58;;;;;;;6.25;3.30;;;;;;;25.80;20.33;99764.84;5053710;28;19926;-72
2022/04/19 12:03:29;;;;;;;5.30;3.28;;;;;;;26.00;21.55;99763.84;5071615;28;20615;-73
2022/04/19 12:05:56;;;;;;;6.35;4.30;;;;;;;24.89;20.24;99766.16;5070237;28;20036;-73
2022/04/19 12:08:46;;;;;;;5.67;3.87;;;;;;;25.39;21.10;99769.75;5071628;28;20509;-73
2022/04/19 12:11:15;;;;;;;6.40;3.53;;;;;;;26.01;20.11;99762.75;5071531;28;20332;-73
2022/04/19 12:13:43;;;;;;;6.65;4.15;;;;;;;26.29;19.20;99754.84;5071401;28;20489;-72
2022/04/19 12:16:25;;;;;;;6.63;3.90;;;;;;;26.69;18.58;99759.06;5071407;28;20032;-72
2022/04/19 12:18:54;;;;;;;10.30;5.82;;;;;;;25.99;20.27;99748.56;5070190;28;20557;-74
2022/04/19 12:21:53;;;;;;;5.15;3.35;;;;;;;26.51;19.50;99746.97;5071156;28;20052;-72
2022/04/19 12:24:22;;;;;;;5.88;3.75;;;;;;;27.24;18.27;99751.25;5048921;28;20396;-73
2022/04/19 12:27:06;;;;;;;4.40;3.08;;;;;;;26.98;18.65;99745.31;5071394;28;20153;-74
2022/04/19 12:29:35;;;;;;;5.53;3.80;;;;;;;27.18;17.32;99750.53;5070028;28;20481;-73
2022/04/19 12:32:02;;;;;;;4.93;3.58;;;;;;;26.93;20.21;99748.94;5071209;28;20055;-73
2022/04/19 12:34:33;;;;;;;5.80;3.08;;;;;;;27.02;18.16;99738.16;5070229;28;20067;-72
2022/04/19 12:37:14;;;;;;;5.60;3.33;;;;;;;26.98;17.74;99737.91;5071520;28;20060;-72
2022/04/19 12:39:42;;;;;;;6.97;3.20;;;;;;;27.41;17.16;99731.63;5071712;28;20063;-71
2022/04/19 12:42:11;;;;;;;;;;;;;;;25.63;19.68;99735.22;5071589;28;20028;-73
2022/04/19 12:44:38;;;;;;;5.13;3.00;;;;;;;27.80;18.30;99725.81;5075311;28;19912;-73
2022/04/19 12:47:14;;;;;;;4.65;3.03;;;;;;;27.23;18.82;99730.50;5075229;28;20063;-73
2022/04/19 12:49:45;;;;;;;6.03;3.00;;;;;;;25.75;19.51;99723.16;5075211;28;20036;-72
2022/04/19 12:52:12;;;;;;;5.93;3.50;;;;;;;25.67;18.41;99730.81;5073483;28;20315;-73
2022/04/19 12:54:40;;;;;;;11.18;4.18;;;;;;;26.24;18.16;99721.03;5074979;28;20037;-72
2022/04/19 13:00:46;;;;;;;6.10;2.95;;;;;;;26.57;18.22;99710.31;5075139;28;20079;-72
2022/04/19 13:03:12;;;;;;;7.07;2.83;;;;;;;26.79;18.89;99709.75;5074428;28;20713;-72
2022/04/19 13:13:50;;;;;;;9.40;3.28;;;;;;;26.91;15.71;99698.41;5074569;28;20132;-72
2022/04/19 13:16:17;;;;;;;4.25;2.75;;;;;;;26.65;16.41;99696.00;5074403;28;20072;-72
2022/04/19 13:18:42;;;;;;;6.25;3.30;;;;;;;26.94;16.40;99704.09;5073281;28;20051;-72
2022/04/19 13:21:08;;;;;;;6.60;3.42;;;;;;;26.28;16.55;99702.19;5074180;28;20047;-72
2022/04/19 13:23:34;;;;;;;6.20;3.20;;;;;;;26.43;16.52;99699.28;5074040;28;20043;-72
2022/04/19 13:25:59;;;;;;;5.25;3.25;;;;;;;26.75;16.37;99701.34;5074369;28;20041;-72
2022/04/19 13:28:26;;;;;;;3.80;3.00;;;;;;;25.86;19.33;99705.59;5074354;28;20032;-73
2022/04/19 13:30:55;;;;;;;4.23;3.43;;;;;;;26.64;17.33;99693.56;5072771;28;20450;-72
2022/04/19 13:33:20;;;;;;;4.90;3.05;;;;;;;27.12;16.27;99691.56;5074098;28;20064;-72
2022/04/19 13:35:46;;;;;;;6.35;3.80;;;;;;;26.98;16.66;99691.47;5074202;28;20036;-73
2022/04/19 13:38:24;;;;;;;7.40;3.92;;;;;;;26.05;16.88;99687.41;5072910;28;20515;-73
2022/04/19 13:40:51;;;;;;;6.28;3.42;;;;;;;25.24;18.13;99678.00;5074025;28;20040;-72
2022/04/19 13:43:16;;;;;;;8.67;4.17;;;;;;;25.26;16.90;99678.53;5073675;28;20032;-72
2022/04/19 13:45:42;;;;;;;6.75;4.03;;;;;;;24.27;18.16;99674.91;5073990;28;20427;-72
2022/04/19 13:48:08;;;;;;;6.47;3.40;;;;;;;24.46;20.47;99672.44;5073881;28;20397;-73
2022/04/19 13:50:35;;;;;;;5.88;3.67;;;;;;;23.63;20.75;99675.56;5072382;28;20035;-72
2022/04/19 13:53:03;;;;;;;5.60;4.07;;;;;;;23.10;20.54;99673.06;5073086;28;20036;-73
2022/04/19 13:55:29;;;;;;;12.25;4.55;;;;;;;22.99;20.27;99677.66;5073983;28;20382;-72
2022/04/19 13:57:55;;;;;;;5.40;3.80;;;;;;;22.86;22.25;99670.03;5073944;28;20093;-72
2022/04/19 14:00:26;;;;;;;6.88;4.45;;;;;;;22.90;22.09;99676.56;5074029;28;20032;-72
2022/04/19 14:02:52;;;;;;;8.63;3.88;;;;;;;22.20;22.36;99670.56;5073774;28;20043;-72
2022/04/19 14:05:18;;;;;;;7.80;4.10;;;;;;;22.32;22.06;99677.69;5073444;28;20036;-72
2022/04/19 14:07:43;;;;;;;14.45;5.53;;;;;;;21.92;21.84;99679.88;5073765;28;20037;-73
2022/04/19 14:10:10;;;;;;;7.60;5.00;;;;;;;22.15;21.86;99673.25;5072287;28;20421;-73
2022/04/19 14:12:36;;;;;;;9.40;5.40;;;;;;;21.54;21.64;99677.41;5073124;28;20529;-73
2022/04/19 14:15:06;;;;;;;9.27;5.35;;;;;;;21.67;21.88;99671.56;5073462;28;20055;-72
2022/04/19 14:17:32;;;;;;;12.23;4.80;;;;;;;21.90;21.51;99676.56;5073450;28;20169;-72
2022/04/19 14:19:58;;;;;;;7.57;4.20;;;;;;;21.78;21.83;99667.00;5073175;28;20111;-72
2022/04/19 14:22:24;;;;;;;8.80;4.80;;;;;;;21.75;23.66;99671.06;5071778;28;20119;-73
2022/04/19 14:24:55;;;;;;;9.73;4.57;;;;;;;21.08;25.71;99669.66;5072272;28;20067;-73
2022/04/19 14:27:20;;;;;;;8.25;4.93;;;;;;;20.98;23.26;99671.44;5072308;28;20085;-73
2022/04/19 14:35:15;;;;;;;7.78;4.97;;;;;;;20.52;23.16;99665.53;5072161;28;20040;-72
2022/04/19 14:37:41;;;;;;;8.23;4.88;;;;;;;20.54;23.00;99666.94;5072813;28;20451;-73
2022/04/19 14:40:07;;;;;;;7.32;4.53;;;;;;;20.62;24.22;99665.66;5072907;28;20037;-72
2022/04/19 14:42:33;;;;;;;7.82;3.88;;;;;;;20.93;23.19;99660.56;5072295;28;20048;-72
2022/04/19 14:44:58;;;;;;;7.50;4.78;;;;;;;20.77;23.63;99665.81;5072796;28;20040;-73
2022/04/19 14:47:24;;;;;;;9.05;4.85;;;;;;;20.43;24.32;99667.00;5054783;28;20041;-72
2022/04/19 14:49:49;;;;;;;22.90;5.63;;;;;;;20.69;24.02;99655.44;5072817;28;20037;-72
2022/04/19 14:52:18;;;;;;;7.25;4.75;;;;;;;20.70;22.62;99648.97;5072404;28;20028;-73
2022/04/19 14:54:49;;;;;;;8.32;4.43;;;;;;;20.80;23.19;99661.78;5073269;28;20040;-72
2022/04/19 14:57:16;;;;;;;8.68;5.13;;;;;;;20.13;23.40;99662.03;5071653;28;20378;-71
2022/04/19 14:59:42;;;;;;;9.50;4.20;;;;;;;20.24;24.00;99663.78;5072883;28;20397;-72
2022/04/19 15:02:09;;;;;;;8.73;4.18;;;;;;;20.39;24.41;99665.88;5072094;28;20032;-73
2022/04/19 15:04:34;;;;;;;6.38;4.03;;;;;;;20.46;26.09;99653.00;5072378;28;20071;-73
2022/04/19 15:07:00;;;;;;;6.65;3.78;;;;;;;20.53;26.15;99651.75;5072097;28;20056;-72
2022/04/19 15:09:26;;;;;;;8.65;4.07;;;;;;;20.33;25.83;99654.97;5072670;28;20058;-72
2022/04/19 15:11:54;;;;;;;7.82;4.30;;;;;;;20.15;25.41;99651.75;5070762;28;20495;-72
2022/04/19 15:14:20;;;;;;;;;;;;;;;20.38;25.94;99654.25;5072980;28;20121;-72
2022/04/19 15:16:46;;;;;;;6.53;4.07;;;;;;;20.30;25.71;99647.38;5071253;28;19912;-73
2022/04/19 15:19:12;;;;;;;10.90;4.18;;;;;;;20.42;25.18;99659.97;5072146;28;20029;-72
2022/04/19 15:21:38;;;;;;;6.70;3.45;;;;;;;20.19;25.05;99651.03;5071973;28;20043;-73
2022/04/19 15:24:04;;;;;;;5.68;3.47;;;;;;;20.05;25.85;99655.16;5072034;28;20037;-74
2022/04/19 15:26:30;;;;;;;6.05;3.63;;;;;;;19.92;26.22;99639.31;5072392;28;20016;-72
2022/04/19 15:28:56;;;;;;;6.93;4.35;;;;;;;19.66;26.87;99648.91;5070995;28;20036;-70
2022/04/19 15:31:21;;;;;;;4.05;3.22;;;;;;;20.01;26.26;99646.72;5071903;28;20115;-71
2022/04/19 15:33:48;;;;;;;6.00;4.13;;;;;;;19.86;27.00;99651.09;5071853;28;20120;-74
2022/04/19 15:36:16;;;;;;;6.03;3.92;;;;;;;19.68;26.13;99649.47;5070810;28;20429;-74
2022/04/19 15:38:41;;;;;;;6.57;3.90;;;;;;;19.85;26.13;99642.19;5071884;28;20056;-73
2022/04/19 15:41:09;;;;;;;6.85;3.72;;;;;;;19.97;27.58;99650.19;5071733;28;20430;-71
2022/04/19 15:43:34;;;;;;;;;;;;;;;19.87;27.76;99652.72;5072053;28;20060;-76
2022/04/19 15:46:00;;;;;;;7.97;3.75;;;;;;;20.01;27.14;99651.31;5071917;28;19956;-70
2022/04/19 15:48:28;;;;;;;8.13;3.95;;;;;;;19.91;27.40;99645.78;5071826;28;20032;-70
2022/04/19 15:50:54;;;;;;;5.95;3.88;;;;;;;19.93;27.21;99647.16;5071717;28;20032;-70
2022/04/19 15:53:20;;;;;;;6.45;3.95;;;;;;;19.37;27.19;99645.47;5071567;28;20491;-70
2022/04/19 15:55:46;;;;;;;14.00;4.55;;;;;;;19.74;26.96;99649.31;5071686;28;20064;-70
2022/04/19 15:58:12;;;;;;;8.40;4.28;;;;;;;19.77;27.30;99640.72;5070474;28;20093;-70
2022/04/19 16:00:38;;;;;;;7.32;3.90;;;;;;;19.78;27.03;99649.66;5070207;28;20052;-70
2022/04/19 16:03:04;;;;;;;11.82;4.47;;;;;;;19.19;27.09;99647.34;5070035;28;20075;-69
2022/04/19 16:05:30;;;;;;;8.02;3.97;;;;;;;19.32;27.30;99648.09;5071703;28;20085;-70
2022/04/19 16:07:56;;;;;;;7.78;4.80;;;;;;;19.38;26.97;99645.22;5071603;28;20036;-70
2022/04/19 16:10:22;;;;;;;7.68;4.85;;;;;;;19.36;26.84;99635.72;5070126;28;20040;-70
2022/04/19 16:12:47;;;;;;;9.30;4.22;;;;;;;19.31;27.38;99638.34;5071339;28;20032;-70
2022/04/19 16:15:15;;;;;;;8.45;3.90;;;;;;;19.42;27.69;99640.13;5071526;28;20059;-71
2022/04/19 16:23:21;;;;;;;7.77;4.47;;;;;;;19.12;28.39;99635.06;5070289;28;20525;-70
2022/04/19 16:25:54;;;;;;;9.65;4.47;;;;;;;19.21;27.49;99634.41;5071497;28;20074;-70
2022/04/19 16:28:20;;;;;;;8.32;3.88;;;;;;;19.31;27.57;99638.34;5070242;28;20115;-70
2022/04/19 16:30:47;;;;;;;6.97;4.05;;;;;;;19.35;27.48;99629.50;5069911;28;20378;-70
2022/04/19 16:33:13;;;;;;;7.22;3.90;;;;;;;19.14;28.30;99628.34;5113263;22;20472;-71
2022/04/19 16:35:38;;;;;;;7.45;4.60;;;;;;;18.97;28.14;99625.63;5107301;28;20067;-70
2022/04/19 16:38:04;;;;;;;11.25;4.57;;;;;;;18.62;28.97;99623.06;5091297;28;20044;-70
2022/04/19 16:40:30;;;;;;;12.85;5.20;;;;;;;18.58;28.78;99629.16;5090101;28;20043;-70
2022/04/19 16:42:55;;;;;;;8.23;4.70;;;;;;;18.58;28.73;99630.00;5090975;28;20032;-69
2022/04/19 16:45:21;;;;;;;8.93;5.03;;;;;;;18.60;28.93;99627.88;5092251;28;20036;-69
2022/04/19 16:47:47;;;;;;;6.93;4.45;;;;;;;18.69;28.66;99629.16;5090060;28;20169;-69
2022/04/19 16:50:14;;;;;;;10.25;5.20;;;;;;;18.53;29.14;99613.72;5091244;28;20059;-70
2022/04/19 16:52:43;;;;;;;9.02;5.18;;;;;;;18.45;28.71;99622.16;5089595;28;20024;-70
2022/04/19 16:55:09;;;;;;;6.15;4.32;;;;;;;18.40;30.34;99622.91;5090406;28;20036;-70
2022/04/19 16:57:36;;;;;;;5.47;3.88;;;;;;;18.36;29.27;99615.53;5091160;28;20046;-69